sensor_id;sensor_type;location;lat;lon;timestamp;P1;P2;P0
64138;PMS5003;50435;43.700;-79.318;2023-04-25T00:00:20;5;3;
64138;PMS5003;50435;43.700;-79.318;2023-04-25T00:02:48;3;3;
64138;PMS5003;50435;43.700;-79.318;2023-04-25T00:05:15;3;3;
64138;PMS5003;50435;43.700;-79.318;2023-04-25T00:07:42;4;3;
64138;PMS5003;50435;43.700;-79.318;2023-04-25T00:10:09;2;2;
64138;PMS5003;50435;43.700;-79.318;2023-04-25T00:12:37;2;2;
64138;PMS5003;50435;43.700;-79.318;2023-04-25T00:15:05;4;4;
64138;PMS5003;50435;43.700;-79.318;2023-04-25T00:17:34;4;4;
64138;PMS5003;50435;43.700;-79.318;2023-04-25T00:20:02;3;2;
64138;PMS5003;50435;43.700;-79.318;2023-04-25T00:22:30;2;2;
64138;PMS5003;50435;43.700;-79.318;2023-04-25T00:24:58;2;2;
64138;PMS5003;50435;43.700;-79.318;2023-04-25T00:27:26;2;2;
64138;PMS5003;50435;43.700;-79.318;2023-04-25T00:29:54;3;3;
64138;PMS5003;50435;43.700;-79.318;2023-04-25T00:32:21;3;2;
64138;PMS5003;50435;43.700;-79.318;2023-04-25T00:34:49;1;1;
64138;PMS5003;50435;43.700;-79.318;2023-04-25T00:37:17;1;1;
64138;PMS5003;50435;43.700;-79.318;2023-04-25T00:39:44;1;0;
64138;PMS5003;50435;43.700;-79.318;2023-04-25T00:42:11;1;1;
64138;PMS5003;50435;43.700;-79.318;2023-04-25T00:44:39;0;0;
64138;PMS5003;50435;43.700;-79.318;2023-04-25T00:47:07;1;1;
64138;PMS5003;50435;43.700;-79.318;2023-04-25T00:49:35;2;1;
64138;PMS5003;50435;43.700;-79.318;2023-04-25T00:52:02;1;1;
64138;PMS5003;50435;43.700;-79.318;2023-04-25T00:54:30;2;1;
64138;PMS5003;50435;43.700;-79.318;2023-04-25T00:56:57;1;1;
64138;PMS5003;50435;43.700;-79.318;2023-04-25T00:59:26;1;1;
64138;PMS5003;50435;43.700;-79.318;2023-04-25T01:01:55;1;1;
64138;PMS5003;50435;43.700;-79.318;2023-04-25T01:04:23;0;0;
64138;PMS5003;50435;43.700;-79.318;2023-04-25T01:06:51;0;0;
64138;PMS5003;50435;43.700;-79.318;2023-04-25T01:09:19;3;1;
64138;PMS5003;50435;43.700;-79.318;2023-04-25T01:11:47;1;1;
64138;PMS5003;50435;43.700;-79.318;2023-04-25T01:14:15;0;0;
64138;PMS5003;50435;43.700;-79.318;2023-04-25T01:16:43;1;1;
64138;PMS5003;50435;43.700;-79.318;2023-04-25T01:19:11;0;0;
64138;PMS5003;50435;43.700;-79.318;2023-04-25T01:21:42;1;1;
64138;PMS5003;50435;43.700;-79.318;2023-04-25T01:24:10;1;1;
64138;PMS5003;50435;43.700;-79.318;2023-04-25T01:26:38;1;1;
64138;PMS5003;50435;43.700;-79.318;2023-04-25T01:29:08;2;1;
64138;PMS5003;50435;43.700;-79.318;2023-04-25T01:31:35;1;1;
64138;PMS5003;50435;43.700;-79.318;2023-04-25T01:34:03;4;1;
64138;PMS5003;50435;43.700;-79.318;2023-04-25T01:36:30;2;1;
64138;PMS5003;50435;43.700;-79.318;2023-04-25T01:38:58;0;0;
64138;PMS5003;50435;43.700;-79.318;2023-04-25T01:41:26;0;0;
64138;PMS5003;50435;43.700;-79.318;2023-04-25T01:43:54;1;1;
64138;PMS5003;50435;43.700;-79.318;2023-04-25T01:46:22;2;2;
64138;PMS5003;50435;43.700;-79.318;2023-04-25T01:48:50;0;0;
64138;PMS5003;50435;43.700;-79.318;2023-04-25T01:51:17;2;2;
64138;PMS5003;50435;43.700;-79.318;2023-04-25T01:53:45;1;1;
64138;PMS5003;50435;43.700;-79.318;2023-04-25T01:56:13;2;2;
64138;PMS5003;50435;43.700;-79.318;2023-04-25T01:58:41;3;1;
64138;PMS5003;50435;43.700;-79.318;2023-04-25T02:01:09;1;1;
64138;PMS5003;50435;43.700;-79.318;2023-04-25T02:03:36;1;1;
64138;PMS5003;50435;43.700;-79.318;2023-04-25T02:06:04;1;1;
64138;PMS5003;50435;43.700;-79.318;2023-04-25T02:08:32;1;1;
64138;PMS5003;50435;43.700;-79.318;2023-04-25T02:11:00;2;2;
64138;PMS5003;50435;43.700;-79.318;2023-04-25T02:13:27;2;2;
64138;PMS5003;50435;43.700;-79.318;2023-04-25T02:15:54;0;0;
64138;PMS5003;50435;43.700;-79.318;2023-04-25T02:18:21;2;2;
64138;PMS5003;50435;43.700;-79.318;2023-04-25T02:20:48;1;1;
64138;PMS5003;50435;43.700;-79.318;2023-04-25T02:23:16;1;1;
64138;PMS5003;50435;43.700;-79.318;2023-04-25T02:25:43;1;1;
64138;PMS5003;50435;43.700;-79.318;2023-04-25T02:28:10;0;0;
64138;PMS5003;50435;43.700;-79.318;2023-04-25T02:30:38;2;2;
64138;PMS5003;50435;43.700;-79.318;2023-04-25T02:33:05;1;1;
64138;PMS5003;50435;43.700;-79.318;2023-04-25T02:35:32;3;3;
64138;PMS5003;50435;43.700;-79.318;2023-04-25T02:38:00;1;1;
64138;PMS5003;50435;43.700;-79.318;2023-04-25T02:40:28;2;2;
64138;PMS5003;50435;43.700;-79.318;2023-04-25T02:42:55;5;2;
64138;PMS5003;50435;43.700;-79.318;2023-04-25T02:45:22;2;2;
64138;PMS5003;50435;43.700;-79.318;2023-04-25T02:47:50;3;3;
64138;PMS5003;50435;43.700;-79.318;2023-04-25T02:50:17;3;2;
64138;PMS5003;50435;43.700;-79.318;2023-04-25T02:52:44;3;1;
64138;PMS5003;50435;43.700;-79.318;2023-04-25T02:55:12;3;2;
64138;PMS5003;50435;43.700;-79.318;2023-04-25T02:57:40;2;2;
64138;PMS5003;50435;43.700;-79.318;2023-04-25T03:00:08;2;2;
64138;PMS5003;50435;43.700;-79.318;2023-04-25T03:02:36;3;3;
64138;PMS5003;50435;43.700;-79.318;2023-04-25T03:05:03;2;2;
64138;PMS5003;50435;43.700;-79.318;2023-04-25T03:07:31;2;1;
64138;PMS5003;50435;43.700;-79.318;2023-04-25T03:09:58;1;1;
64138;PMS5003;50435;43.700;-79.318;2023-04-25T03:12:25;2;2;
64138;PMS5003;50435;43.700;-79.318;2023-04-25T03:14:53;1;1;
64138;PMS5003;50435;43.700;-79.318;2023-04-25T03:17:20;2;2;
64138;PMS5003;50435;43.700;-79.318;2023-04-25T03:19:47;2;2;
64138;PMS5003;50435;43.700;-79.318;2023-04-25T03:22:14;3;2;
64138;PMS5003;50435;43.700;-79.318;2023-04-25T03:24:41;3;3;
64138;PMS5003;50435;43.700;-79.318;2023-04-25T03:27:09;2;2;
64138;PMS5003;50435;43.700;-79.318;2023-04-25T03:29:37;3;1;
64138;PMS5003;50435;43.700;-79.318;2023-04-25T03:32:04;2;2;
64138;PMS5003;50435;43.700;-79.318;2023-04-25T03:34:31;2;2;
64138;PMS5003;50435;43.700;-79.318;2023-04-25T03:36:58;3;3;
64138;PMS5003;50435;43.700;-79.318;2023-04-25T03:39:26;2;2;
64138;PMS5003;50435;43.700;-79.318;2023-04-25T03:41:53;2;2;
64138;PMS5003;50435;43.700;-79.318;2023-04-25T03:44:21;3;3;
64138;PMS5003;50435;43.700;-79.318;2023-04-25T03:46:48;4;3;
64138;PMS5003;50435;43.700;-79.318;2023-04-25T03:49:16;3;2;
64138;PMS5003;50435;43.700;-79.318;2023-04-25T03:51:43;2;2;
64138;PMS5003;50435;43.700;-79.318;2023-04-25T03:54:11;3;3;
64138;PMS5003;50435;43.700;-79.318;2023-04-25T03:56:38;1;1;
64138;PMS5003;50435;43.700;-79.318;2023-04-25T03:59:05;2;2;
64138;PMS5003;50435;43.700;-79.318;2023-04-25T04:01:33;2;2;
64138;PMS5003;50435;43.700;-79.318;2023-04-25T04:04:00;5;5;
64138;PMS5003;50435;43.700;-79.318;2023-04-25T04:06:29;2;2;
64138;PMS5003;50435;43.700;-79.318;2023-04-25T04:08:56;3;2;
64138;PMS5003;50435;43.700;-79.318;2023-04-25T04:11:24;5;5;
64138;PMS5003;50435;43.700;-79.318;2023-04-25T04:13:51;4;2;
64138;PMS5003;50435;43.700;-79.318;2023-04-25T04:16:18;3;3;
64138;PMS5003;50435;43.700;-79.318;2023-04-25T04:18:45;4;4;
64138;PMS5003;50435;43.700;-79.318;2023-04-25T04:21:13;3;3;
64138;PMS5003;50435;43.700;-79.318;2023-04-25T04:23:41;7;7;
64138;PMS5003;50435;43.700;-79.318;2023-04-25T04:26:09;3;3;
64138;PMS5003;50435;43.700;-79.318;2023-04-25T04:28:37;3;3;
64138;PMS5003;50435;43.700;-79.318;2023-04-25T04:31:04;3;3;
64138;PMS5003;50435;43.700;-79.318;2023-04-25T04:33:31;3;2;
64138;PMS5003;50435;43.700;-79.318;2023-04-25T04:35:58;3;3;
64138;PMS5003;50435;43.700;-79.318;2023-04-25T04:38:25;3;3;
64138;PMS5003;50435;43.700;-79.318;2023-04-25T04:40:53;3;3;
64138;PMS5003;50435;43.700;-79.318;2023-04-25T04:43:20;2;2;
64138;PMS5003;50435;43.700;-79.318;2023-04-25T04:45:48;2;2;
64138;PMS5003;50435;43.700;-79.318;2023-04-25T04:48:15;4;3;
64138;PMS5003;50435;43.700;-79.318;2023-04-25T04:50:43;3;3;
64138;PMS5003;50435;43.700;-79.318;2023-04-25T04:53:11;5;4;
64138;PMS5003;50435;43.700;-79.318;2023-04-25T04:55:38;4;4;
64138;PMS5003;50435;43.700;-79.318;2023-04-25T04:58:05;3;3;
64138;PMS5003;50435;43.700;-79.318;2023-04-25T05:00:33;3;3;
64138;PMS5003;50435;43.700;-79.318;2023-04-25T05:03:00;3;3;
64138;PMS5003;50435;43.700;-79.318;2023-04-25T05:05:28;3;3;
64138;PMS5003;50435;43.700;-79.318;2023-04-25T05:07:55;4;3;
64138;PMS5003;50435;43.700;-79.318;2023-04-25T05:10:22;3;3;
64138;PMS5003;50435;43.700;-79.318;2023-04-25T05:12:49;4;4;
64138;PMS5003;50435;43.700;-79.318;2023-04-25T05:15:17;4;4;
64138;PMS5003;50435;43.700;-79.318;2023-04-25T05:17:45;4;3;
64138;PMS5003;50435;43.700;-79.318;2023-04-25T05:20:12;5;4;
64138;PMS5003;50435;43.700;-79.318;2023-04-25T05:22:39;3;3;
64138;PMS5003;50435;43.700;-79.318;2023-04-25T05:25:06;3;3;
64138;PMS5003;50435;43.700;-79.318;2023-04-25T05:27:34;4;3;
64138;PMS5003;50435;43.700;-79.318;2023-04-25T05:30:02;2;2;
64138;PMS5003;50435;43.700;-79.318;2023-04-25T05:32:30;2;2;
64138;PMS5003;50435;43.700;-79.318;2023-04-25T05:34:58;5;5;
64138;PMS5003;50435;43.700;-79.318;2023-04-25T05:37:26;2;2;
64138;PMS5003;50435;43.700;-79.318;2023-04-25T05:39:54;4;4;
64138;PMS5003;50435;43.700;-79.318;2023-04-25T05:42:21;3;3;
64138;PMS5003;50435;43.700;-79.318;2023-04-25T05:44:48;4;4;
64138;PMS5003;50435;43.700;-79.318;2023-04-25T05:47:15;6;6;
64138;PMS5003;50435;43.700;-79.318;2023-04-25T05:49:42;5;4;
64138;PMS5003;50435;43.700;-79.318;2023-04-25T05:52:10;7;6;
64138;PMS5003;50435;43.700;-79.318;2023-04-25T05:54:37;6;4;
64138;PMS5003;50435;43.700;-79.318;2023-04-25T05:57:04;7;4;
64138;PMS5003;50435;43.700;-79.318;2023-04-25T05:59:32;3;3;
64138;PMS5003;50435;43.700;-79.318;2023-04-25T06:01:59;3;3;
64138;PMS5003;50435;43.700;-79.318;2023-04-25T06:04:27;2;2;
64138;PMS5003;50435;43.700;-79.318;2023-04-25T06:06:55;7;6;
64138;PMS5003;50435;43.700;-79.318;2023-04-25T06:09:22;5;4;
64138;PMS5003;50435;43.700;-79.318;2023-04-25T06:11:49;5;5;
64138;PMS5003;50435;43.700;-79.318;2023-04-25T06:14:17;6;3;
64138;PMS5003;50435;43.700;-79.318;2023-04-25T06:16:44;3;3;
64138;PMS5003;50435;43.700;-79.318;2023-04-25T06:19:11;4;4;
64138;PMS5003;50435;43.700;-79.318;2023-04-25T06:21:38;7;5;
64138;PMS5003;50435;43.700;-79.318;2023-04-25T06:24:06;3;3;
64138;PMS5003;50435;43.700;-79.318;2023-04-25T06:26:33;5;5;
64138;PMS5003;50435;43.700;-79.318;2023-04-25T06:29:00;6;4;
64138;PMS5003;50435;43.700;-79.318;2023-04-25T06:31:27;4;4;
64138;PMS5003;50435;43.700;-79.318;2023-04-25T06:33:54;8;5;
64138;PMS5003;50435;43.700;-79.318;2023-04-25T06:36:21;3;3;
64138;PMS5003;50435;43.700;-79.318;2023-04-25T06:38:49;4;4;
64138;PMS5003;50435;43.700;-79.318;2023-04-25T06:41:16;3;3;
64138;PMS5003;50435;43.700;-79.318;2023-04-25T06:43:43;4;4;
64138;PMS5003;50435;43.700;-79.318;2023-04-25T06:46:11;7;4;
64138;PMS5003;50435;43.700;-79.318;2023-04-25T06:48:38;3;3;
64138;PMS5003;50435;43.700;-79.318;2023-04-25T06:51:05;6;5;
64138;PMS5003;50435;43.700;-79.318;2023-04-25T06:53:33;4;4;
64138;PMS5003;50435;43.700;-79.318;2023-04-25T06:56:00;5;4;
64138;PMS5003;50435;43.700;-79.318;2023-04-25T06:58:27;7;6;
64138;PMS5003;50435;43.700;-79.318;2023-04-25T07:00:54;3;3;
64138;PMS5003;50435;43.700;-79.318;2023-04-25T07:03:21;4;4;
64138;PMS5003;50435;43.700;-79.318;2023-04-25T07:05:49;4;4;
64138;PMS5003;50435;43.700;-79.318;2023-04-25T07:08:17;4;3;
64138;PMS5003;50435;43.700;-79.318;2023-04-25T07:10:45;3;3;
64138;PMS5003;50435;43.700;-79.318;2023-04-25T07:13:12;6;6;
64138;PMS5003;50435;43.700;-79.318;2023-04-25T07:15:39;5;5;
64138;PMS5003;50435;43.700;-79.318;2023-04-25T07:18:06;4;4;
64138;PMS5003;50435;43.700;-79.318;2023-04-25T07:20:33;5;4;
64138;PMS5003;50435;43.700;-79.318;2023-04-25T07:23:01;6;5;
64138;PMS5003;50435;43.700;-79.318;2023-04-25T07:25:28;8;5;
64138;PMS5003;50435;43.700;-79.318;2023-04-25T07:27:55;5;5;
64138;PMS5003;50435;43.700;-79.318;2023-04-25T07:30:23;6;6;
64138;PMS5003;50435;43.700;-79.318;2023-04-25T07:32:50;4;4;
64138;PMS5003;50435;43.700;-79.318;2023-04-25T07:35:18;9;9;
64138;PMS5003;50435;43.700;-79.318;2023-04-25T07:37:45;4;4;
64138;PMS5003;50435;43.700;-79.318;2023-04-25T07:40:13;7;5;
64138;PMS5003;50435;43.700;-79.318;2023-04-25T07:42:40;5;4;
64138;PMS5003;50435;43.700;-79.318;2023-04-25T07:45:08;6;5;
64138;PMS5003;50435;43.700;-79.318;2023-04-25T07:47:36;7;6;
64138;PMS5003;50435;43.700;-79.318;2023-04-25T07:50:04;5;5;
64138;PMS5003;50435;43.700;-79.318;2023-04-25T07:52:32;7;6;
64138;PMS5003;50435;43.700;-79.318;2023-04-25T07:54:59;8;5;
64138;PMS5003;50435;43.700;-79.318;2023-04-25T07:57:26;6;6;
64138;PMS5003;50435;43.700;-79.318;2023-04-25T07:59:53;7;5;
64138;PMS5003;50435;43.700;-79.318;2023-04-25T08:02:20;7;7;
64138;PMS5003;50435;43.700;-79.318;2023-04-25T08:04:48;6;5;
64138;PMS5003;50435;43.700;-79.318;2023-04-25T08:07:15;4;2;
64138;PMS5003;50435;43.700;-79.318;2023-04-25T08:09:43;8;8;
64138;PMS5003;50435;43.700;-79.318;2023-04-25T08:12:10;5;5;
64138;PMS5003;50435;43.700;-79.318;2023-04-25T08:14:37;5;5;
64138;PMS5003;50435;43.700;-79.318;2023-04-25T08:17:04;4;4;
64138;PMS5003;50435;43.700;-79.318;2023-04-25T08:19:32;5;5;
64138;PMS5003;50435;43.700;-79.318;2023-04-25T08:21:59;4;4;
64138;PMS5003;50435;43.700;-79.318;2023-04-25T08:24:27;8;6;
64138;PMS5003;50435;43.700;-79.318;2023-04-25T08:26:54;7;6;
64138;PMS5003;50435;43.700;-79.318;2023-04-25T08:29:21;7;7;
64138;PMS5003;50435;43.700;-79.318;2023-04-25T08:31:48;5;5;
64138;PMS5003;50435;43.700;-79.318;2023-04-25T08:34:15;8;7;
64138;PMS5003;50435;43.700;-79.318;2023-04-25T08:36:43;9;8;
64138;PMS5003;50435;43.700;-79.318;2023-04-25T08:39:11;5;5;
64138;PMS5003;50435;43.700;-79.318;2023-04-25T08:41:39;5;5;
64138;PMS5003;50435;43.700;-79.318;2023-04-25T08:44:07;8;8;
64138;PMS5003;50435;43.700;-79.318;2023-04-25T08:46:37;9;8;
64138;PMS5003;50435;43.700;-79.318;2023-04-25T08:49:06;6;6;
64138;PMS5003;50435;43.700;-79.318;2023-04-25T08:51:35;8;7;
64138;PMS5003;50435;43.700;-79.318;2023-04-25T08:54:11;8;8;
64138;PMS5003;50435;43.700;-79.318;2023-04-25T08:56:40;7;7;
64138;PMS5003;50435;43.700;-79.318;2023-04-25T08:59:10;7;7;
64138;PMS5003;50435;43.700;-79.318;2023-04-25T09:01:38;7;6;
64138;PMS5003;50435;43.700;-79.318;2023-04-25T09:04:06;9;7;
64138;PMS5003;50435;43.700;-79.318;2023-04-25T09:06:33;10;9;
64138;PMS5003;50435;43.700;-79.318;2023-04-25T09:09:04;7;7;
64138;PMS5003;50435;43.700;-79.318;2023-04-25T09:11:33;12;9;
64138;PMS5003;50435;43.700;-79.318;2023-04-25T09:14:18;8;8;
64138;PMS5003;50435;43.700;-79.318;2023-04-25T09:17:03;7;7;
64138;PMS5003;50435;43.700;-79.318;2023-04-25T09:19:32;8;8;
64138;PMS5003;50435;43.700;-79.318;2023-04-25T09:22:01;9;8;
64138;PMS5003;50435;43.700;-79.318;2023-04-25T09:24:31;8;7;
64138;PMS5003;50435;43.700;-79.318;2023-04-25T09:26:59;10;8;
64138;PMS5003;50435;43.700;-79.318;2023-04-25T09:29:29;9;8;
64138;PMS5003;50435;43.700;-79.318;2023-04-25T09:32:15;11;11;
64138;PMS5003;50435;43.700;-79.318;2023-04-25T09:34:45;11;11;
64138;PMS5003;50435;43.700;-79.318;2023-04-25T09:37:16;11;11;
64138;PMS5003;50435;43.700;-79.318;2023-04-25T09:39:45;10;8;
64138;PMS5003;50435;43.700;-79.318;2023-04-25T09:42:13;11;10;
64138;PMS5003;50435;43.700;-79.318;2023-04-25T09:44:43;14;10;
64138;PMS5003;50435;43.700;-79.318;2023-04-25T09:47:11;13;10;
64138;PMS5003;50435;43.700;-79.318;2023-04-25T09:49:40;10;10;
64138;PMS5003;50435;43.700;-79.318;2023-04-25T09:52:09;8;8;
64138;PMS5003;50435;43.700;-79.318;2023-04-25T09:54:40;13;12;
64138;PMS5003;50435;43.700;-79.318;2023-04-25T09:57:10;10;10;
64138;PMS5003;50435;43.700;-79.318;2023-04-25T09:59:41;15;14;
64138;PMS5003;50435;43.700;-79.318;2023-04-25T10:02:11;11;10;
64138;PMS5003;50435;43.700;-79.318;2023-04-25T10:04:39;10;9;
64138;PMS5003;50435;43.700;-79.318;2023-04-25T10:07:08;9;7;
64138;PMS5003;50435;43.700;-79.318;2023-04-25T10:09:37;11;10;
64138;PMS5003;50435;43.700;-79.318;2023-04-25T10:12:06;15;13;
64138;PMS5003;50435;43.700;-79.318;2023-04-25T10:14:34;14;10;
64138;PMS5003;50435;43.700;-79.318;2023-04-25T10:17:02;9;9;
64138;PMS5003;50435;43.700;-79.318;2023-04-25T10:19:30;10;10;
64138;PMS5003;50435;43.700;-79.318;2023-04-25T10:22:08;9;9;
64138;PMS5003;50435;43.700;-79.318;2023-04-25T10:24:47;11;10;
64138;PMS5003;50435;43.700;-79.318;2023-04-25T10:27:15;14;11;
64138;PMS5003;50435;43.700;-79.318;2023-04-25T10:29:43;14;11;
64138;PMS5003;50435;43.700;-79.318;2023-04-25T10:32:11;14;11;
64138;PMS5003;50435;43.700;-79.318;2023-04-25T10:34:41;14;13;
64138;PMS5003;50435;43.700;-79.318;2023-04-25T10:37:10;14;14;
64138;PMS5003;50435;43.700;-79.318;2023-04-25T10:39:39;13;13;
64138;PMS5003;50435;43.700;-79.318;2023-04-25T10:42:08;13;13;
64138;PMS5003;50435;43.700;-79.318;2023-04-25T10:44:37;15;13;
64138;PMS5003;50435;43.700;-79.318;2023-04-25T10:47:06;13;12;
64138;PMS5003;50435;43.700;-79.318;2023-04-25T10:49:35;16;16;
64138;PMS5003;50435;43.700;-79.318;2023-04-25T10:52:11;12;10;
64138;PMS5003;50435;43.700;-79.318;2023-04-25T10:54:42;16;14;
64138;PMS5003;50435;43.700;-79.318;2023-04-25T10:57:26;14;12;
64138;PMS5003;50435;43.700;-79.318;2023-04-25T10:59:59;18;15;
64138;PMS5003;50435;43.700;-79.318;2023-04-25T11:02:27;14;13;
64138;PMS5003;50435;43.700;-79.318;2023-04-25T11:04:55;18;15;
64138;PMS5003;50435;43.700;-79.318;2023-04-25T11:07:26;19;16;
64138;PMS5003;50435;43.700;-79.318;2023-04-25T11:10:01;12;12;
64138;PMS5003;50435;43.700;-79.318;2023-04-25T11:12:29;14;12;
64138;PMS5003;50435;43.700;-79.318;2023-04-25T11:14:58;13;12;
64138;PMS5003;50435;43.700;-79.318;2023-04-25T11:17:26;16;13;
64138;PMS5003;50435;43.700;-79.318;2023-04-25T11:19:54;16;15;
64138;PMS5003;50435;43.700;-79.318;2023-04-25T11:22:22;16;15;
64138;PMS5003;50435;43.700;-79.318;2023-04-25T11:24:50;15;14;
64138;PMS5003;50435;43.700;-79.318;2023-04-25T11:27:17;15;15;
64138;PMS5003;50435;43.700;-79.318;2023-04-25T11:29:45;13;13;
64138;PMS5003;50435;43.700;-79.318;2023-04-25T11:32:13;18;17;
64138;PMS5003;50435;43.700;-79.318;2023-04-25T11:34:43;12;12;
64138;PMS5003;50435;43.700;-79.318;2023-04-25T11:37:11;14;14;
64138;PMS5003;50435;43.700;-79.318;2023-04-25T11:39:38;16;14;
64138;PMS5003;50435;43.700;-79.318;2023-04-25T11:42:10;15;13;
64138;PMS5003;50435;43.700;-79.318;2023-04-25T11:44:38;17;14;
64138;PMS5003;50435;43.700;-79.318;2023-04-25T11:47:05;18;18;
64138;PMS5003;50435;43.700;-79.318;2023-04-25T11:49:33;16;15;
64138;PMS5003;50435;43.700;-79.318;2023-04-25T11:52:02;14;14;
64138;PMS5003;50435;43.700;-79.318;2023-04-25T11:54:34;15;15;
64138;PMS5003;50435;43.700;-79.318;2023-04-25T11:57:03;18;15;
64138;PMS5003;50435;43.700;-79.318;2023-04-25T11:59:31;19;15;
64138;PMS5003;50435;43.700;-79.318;2023-04-25T12:01:58;18;16;
64138;PMS5003;50435;43.700;-79.318;2023-04-25T12:04:29;17;14;
64138;PMS5003;50435;43.700;-79.318;2023-04-25T12:06:57;15;15;
64138;PMS5003;50435;43.700;-79.318;2023-04-25T12:09:28;19;16;
64138;PMS5003;50435;43.700;-79.318;2023-04-25T12:11:58;16;13;
64138;PMS5003;50435;43.700;-79.318;2023-04-25T12:14:27;20;19;
64138;PMS5003;50435;43.700;-79.318;2023-04-25T12:16:57;17;16;
64138;PMS5003;50435;43.700;-79.318;2023-04-25T12:19:26;14;13;
64138;PMS5003;50435;43.700;-79.318;2023-04-25T12:21:58;15;15;
64138;PMS5003;50435;43.700;-79.318;2023-04-25T12:24:27;17;16;
64138;PMS5003;50435;43.700;-79.318;2023-04-25T12:26:58;14;14;
64138;PMS5003;50435;43.700;-79.318;2023-04-25T12:29:27;17;16;
64138;PMS5003;50435;43.700;-79.318;2023-04-25T12:31:56;18;17;
64138;PMS5003;50435;43.700;-79.318;2023-04-25T12:34:24;16;16;
64138;PMS5003;50435;43.700;-79.318;2023-04-25T12:36:52;18;17;
64138;PMS5003;50435;43.700;-79.318;2023-04-25T12:39:21;20;18;
64138;PMS5003;50435;43.700;-79.318;2023-04-25T12:41:51;22;18;
64138;PMS5003;50435;43.700;-79.318;2023-04-25T12:44:19;19;17;
64138;PMS5003;50435;43.700;-79.318;2023-04-25T12:46:46;22;21;
64138;PMS5003;50435;43.700;-79.318;2023-04-25T12:49:14;17;17;
64138;PMS5003;50435;43.700;-79.318;2023-04-25T12:51:41;22;17;
64138;PMS5003;50435;43.700;-79.318;2023-04-25T12:54:09;19;18;
64138;PMS5003;50435;43.700;-79.318;2023-04-25T12:56:36;16;16;
64138;PMS5003;50435;43.700;-79.318;2023-04-25T12:59:04;21;18;
64138;PMS5003;50435;43.700;-79.318;2023-04-25T13:01:31;15;12;
64138;PMS5003;50435;43.700;-79.318;2023-04-25T13:03:59;22;20;
64138;PMS5003;50435;43.700;-79.318;2023-04-25T13:06:27;20;17;
64138;PMS5003;50435;43.700;-79.318;2023-04-25T13:08:54;17;16;
64138;PMS5003;50435;43.700;-79.318;2023-04-25T13:11:22;23;21;
64138;PMS5003;50435;43.700;-79.318;2023-04-25T13:13:49;18;18;
64138;PMS5003;50435;43.700;-79.318;2023-04-25T13:16:17;16;15;
64138;PMS5003;50435;43.700;-79.318;2023-04-25T13:18:45;18;16;
64138;PMS5003;50435;43.700;-79.318;2023-04-25T13:21:12;21;17;
64138;PMS5003;50435;43.700;-79.318;2023-04-25T13:23:39;16;14;
64138;PMS5003;50435;43.700;-79.318;2023-04-25T13:26:08;18;18;
64138;PMS5003;50435;43.700;-79.318;2023-04-25T13:28:35;17;16;
64138;PMS5003;50435;43.700;-79.318;2023-04-25T13:31:03;20;19;
64138;PMS5003;50435;43.700;-79.318;2023-04-25T13:33:31;20;17;
64138;PMS5003;50435;43.700;-79.318;2023-04-25T13:36:00;22;21;
64138;PMS5003;50435;43.700;-79.318;2023-04-25T13:38:28;20;17;
64138;PMS5003;50435;43.700;-79.318;2023-04-25T13:40:55;21;17;
64138;PMS5003;50435;43.700;-79.318;2023-04-25T13:43:23;19;18;
64138;PMS5003;50435;43.700;-79.318;2023-04-25T13:45:50;20;15;
64138;PMS5003;50435;43.700;-79.318;2023-04-25T13:48:18;23;16;
64138;PMS5003;50435;43.700;-79.318;2023-04-25T13:50:46;16;14;
64138;PMS5003;50435;43.700;-79.318;2023-04-25T13:53:13;17;13;
64138;PMS5003;50435;43.700;-79.318;2023-04-25T13:55:40;14;14;
64138;PMS5003;50435;43.700;-79.318;2023-04-25T13:58:07;17;15;
64138;PMS5003;50435;43.700;-79.318;2023-04-25T14:00:35;15;14;
64138;PMS5003;50435;43.700;-79.318;2023-04-25T14:03:04;15;15;
64138;PMS5003;50435;43.700;-79.318;2023-04-25T14:05:31;12;12;
64138;PMS5003;50435;43.700;-79.318;2023-04-25T14:07:59;18;15;
64138;PMS5003;50435;43.700;-79.318;2023-04-25T14:10:26;13;12;
64138;PMS5003;50435;43.700;-79.318;2023-04-25T14:12:53;15;13;
64138;PMS5003;50435;43.700;-79.318;2023-04-25T14:15:21;16;13;
64138;PMS5003;50435;43.700;-79.318;2023-04-25T14:17:48;17;15;
64138;PMS5003;50435;43.700;-79.318;2023-04-25T14:20:16;15;14;
64138;PMS5003;50435;43.700;-79.318;2023-04-25T14:22:44;17;15;
64138;PMS5003;50435;43.700;-79.318;2023-04-25T14:25:12;18;17;
64138;PMS5003;50435;43.700;-79.318;2023-04-25T14:27:39;16;14;
64138;PMS5003;50435;43.700;-79.318;2023-04-25T14:30:07;14;14;
64138;PMS5003;50435;43.700;-79.318;2023-04-25T14:32:36;18;18;
64138;PMS5003;50435;43.700;-79.318;2023-04-25T14:35:04;15;15;
64138;PMS5003;50435;43.700;-79.318;2023-04-25T14:37:31;17;16;
64138;PMS5003;50435;43.700;-79.318;2023-04-25T14:39:59;17;17;
64138;PMS5003;50435;43.700;-79.318;2023-04-25T14:42:27;14;14;
64138;PMS5003;50435;43.700;-79.318;2023-04-25T14:44:55;14;14;
64138;PMS5003;50435;43.700;-79.318;2023-04-25T14:47:22;18;17;
64138;PMS5003;50435;43.700;-79.318;2023-04-25T14:49:50;19;18;
64138;PMS5003;50435;43.700;-79.318;2023-04-25T14:52:17;17;17;
64138;PMS5003;50435;43.700;-79.318;2023-04-25T14:54:44;18;18;
64138;PMS5003;50435;43.700;-79.318;2023-04-25T14:57:12;18;17;
64138;PMS5003;50435;43.700;-79.318;2023-04-25T14:59:40;23;21;
64138;PMS5003;50435;43.700;-79.318;2023-04-25T15:02:07;17;17;
64138;PMS5003;50435;43.700;-79.318;2023-04-25T15:04:35;23;22;
64138;PMS5003;50435;43.700;-79.318;2023-04-25T15:07:03;19;18;
64138;PMS5003;50435;43.700;-79.318;2023-04-25T15:09:31;16;16;
64138;PMS5003;50435;43.700;-79.318;2023-04-25T15:11:58;17;17;
64138;PMS5003;50435;43.700;-79.318;2023-04-25T15:14:26;20;19;
64138;PMS5003;50435;43.700;-79.318;2023-04-25T15:16:53;15;15;
64138;PMS5003;50435;43.700;-79.318;2023-04-25T15:19:21;16;16;
64138;PMS5003;50435;43.700;-79.318;2023-04-25T15:21:48;18;16;
64138;PMS5003;50435;43.700;-79.318;2023-04-25T15:24:16;21;18;
64138;PMS5003;50435;43.700;-79.318;2023-04-25T15:26:44;20;17;
64138;PMS5003;50435;43.700;-79.318;2023-04-25T15:29:11;14;14;
64138;PMS5003;50435;43.700;-79.318;2023-04-25T15:31:39;23;19;
64138;PMS5003;50435;43.700;-79.318;2023-04-25T15:34:06;18;18;
64138;PMS5003;50435;43.700;-79.318;2023-04-25T15:36:33;18;16;
64138;PMS5003;50435;43.700;-79.318;2023-04-25T15:39:02;17;16;
64138;PMS5003;50435;43.700;-79.318;2023-04-25T15:41:29;16;16;
64138;PMS5003;50435;43.700;-79.318;2023-04-25T15:43:57;18;15;
64138;PMS5003;50435;43.700;-79.318;2023-04-25T15:46:26;19;15;
64138;PMS5003;50435;43.700;-79.318;2023-04-25T15:48:53;17;16;
64138;PMS5003;50435;43.700;-79.318;2023-04-25T15:51:21;18;16;
64138;PMS5003;50435;43.700;-79.318;2023-04-25T15:53:48;17;16;
64138;PMS5003;50435;43.700;-79.318;2023-04-25T15:56:15;22;19;
64138;PMS5003;50435;43.700;-79.318;2023-04-25T15:58:43;21;20;
64138;PMS5003;50435;43.700;-79.318;2023-04-25T16:01:10;17;17;
64138;PMS5003;50435;43.700;-79.318;2023-04-25T16:03:37;17;15;
64138;PMS5003;50435;43.700;-79.318;2023-04-25T16:06:05;18;17;
64138;PMS5003;50435;43.700;-79.318;2023-04-25T16:08:33;17;16;